createdAt,value
2022-11-13T00:02:21.021Z,10.03
2022-11-13T00:05:08.108Z,12.03
2022-11-13T00:07:55.041Z,16.37
2022-11-13T00:10:41.978Z,16.80
2022-11-13T00:13:30.652Z,15.87
2022-11-13T00:16:20.326Z,12.80
2022-11-13T00:19:07.291Z,13.17
2022-11-13T00:21:56.737Z,10.40
2022-11-13T00:24:43.698Z,17.13
2022-11-13T00:27:31.717Z,12.43
2022-11-13T00:30:19.694Z,15.17
2022-11-13T00:33:06.929Z,12.43
2022-11-13T00:35:53.979Z,12.23
2022-11-13T00:38:41.099Z,11.63
2022-11-13T00:41:28.076Z,12.87
2022-11-13T00:44:15.042Z,14.10
2022-11-13T00:47:02.105Z,11.03
2022-11-13T00:49:49.035Z,12.50
2022-11-13T00:52:35.991Z,13.20
2022-11-13T00:55:22.936Z,16.03
2022-11-13T00:58:11.063Z,14.27
2022-11-13T01:01:11.511Z,13.17
2022-11-13T01:03:58.495Z,11.47
2022-11-13T01:06:46.039Z,13.63
2022-11-13T01:09:33.090Z,9.47
2022-11-13T01:12:20.015Z,10.97
2022-11-13T01:15:07.417Z,13.17
2022-11-13T01:17:55.083Z,11.17
2022-11-13T01:20:42.014Z,10.40
2022-11-13T01:23:28.933Z,10.40
2022-11-13T01:26:21.989Z,13.80
2022-11-13T01:29:10.489Z,11.80
2022-11-13T01:31:57.455Z,14.47
2022-11-13T01:34:44.377Z,11.20
2022-11-13T01:37:31.301Z,13.03
2022-11-13T01:40:18.460Z,14.27
2022-11-13T01:43:28.889Z,16.87
2022-11-13T01:46:17.506Z,15.43
2022-11-13T01:49:10.460Z,15.40
2022-11-13T01:52:06.934Z,13.33
2022-11-13T01:55:08.133Z,13.13
2022-11-13T01:57:55.277Z,12.83
2022-11-13T02:00:42.384Z,13.50
2022-11-13T02:03:29.357Z,18.30
2022-11-13T02:06:16.633Z,20.03
2022-11-13T02:09:04.661Z,14.93
2022-11-13T02:11:52.552Z,19.20
2022-11-13T02:14:46.131Z,15.27
2022-11-13T02:17:38.955Z,17.20
2022-11-13T02:21:07.737Z,17.60
2022-11-13T02:24:11.281Z,16.37
2022-11-13T02:27:02.715Z,17.70
2022-11-13T02:29:49.619Z,18.03
2022-11-13T02:32:45.987Z,18.03
2022-11-13T02:35:37.368Z,16.60
2022-11-13T02:38:24.316Z,16.80
2022-11-13T02:41:11.250Z,20.83
2022-11-13T02:43:58.218Z,17.23
2022-11-13T02:46:45.158Z,28.10
2022-11-13T02:49:32.082Z,46.57
2022-11-13T02:52:19.045Z,18.37
2022-11-13T02:55:06.667Z,14.17
2022-11-13T02:57:53.836Z,20.33
2022-11-13T03:00:40.747Z,12.33
2022-11-13T03:03:56.045Z,15.37
2022-11-13T03:06:34.563Z,14.00
2022-11-13T03:09:21.513Z,14.20
2022-11-13T03:12:09.651Z,18.67
2022-11-13T03:14:56.607Z,12.77
2022-11-13T03:17:43.602Z,16.20
2022-11-13T03:20:30.715Z,16.00
2022-11-13T03:23:17.615Z,17.40
2022-11-13T03:26:10.743Z,14.27
2022-11-13T03:28:57.724Z,19.10
2022-11-13T03:31:44.636Z,24.13
2022-11-13T03:34:32.237Z,51.30
2022-11-13T03:37:19.164Z,48.80
2022-11-13T03:40:06.876Z,42.87
2022-11-13T03:42:53.784Z,60.33
2022-11-13T03:45:40.716Z,65.30
2022-11-13T03:48:28.053Z,53.73
2022-11-13T03:51:15.308Z,60.70
2022-11-13T03:54:02.264Z,25.00
2022-11-13T03:56:49.221Z,49.10
2022-11-13T03:59:36.147Z,68.63
2022-11-13T04:02:23.113Z,67.50
2022-11-13T04:05:10.528Z,31.77
2022-11-13T04:07:57.487Z,38.73
2022-11-13T04:10:45.435Z,25.07
2022-11-13T04:13:32.604Z,38.93
2022-11-13T04:16:19.519Z,30.30
2022-11-13T04:19:06.559Z,31.03
2022-11-13T04:21:53.445Z,27.43
2022-11-13T04:24:40.362Z,19.63
2022-11-13T04:27:27.358Z,16.43
2022-11-13T04:30:14.283Z,18.60
2022-11-13T04:33:02.010Z,20.33
2022-11-13T04:35:49.014Z,27.67
2022-11-13T04:38:36.059Z,20.13
2022-11-13T04:41:41.605Z,16.70
2022-11-13T04:44:28.518Z,17.47
2022-11-13T04:47:15.493Z,11.83
2022-11-13T04:50:03.441Z,14.43
2022-11-13T04:52:50.401Z,11.40
2022-11-13T04:55:37.327Z,16.73
2022-11-13T04:58:24.276Z,13.40
2022-11-13T05:01:11.194Z,24.37
2022-11-13T05:03:58.154Z,18.30
2022-11-13T05:06:45.134Z,11.33
2022-11-13T05:09:32.139Z,11.40
2022-11-13T05:12:20.724Z,12.27
2022-11-13T05:15:08.166Z,10.37
2022-11-13T05:17:55.744Z,13.00
2022-11-13T05:20:42.708Z,11.27
2022-11-13T05:23:29.700Z,13.27
2022-11-13T05:26:16.636Z,15.20
2022-11-13T05:29:03.782Z,11.73
2022-11-13T05:31:50.716Z,13.13
2022-11-13T05:34:37.629Z,13.60
2022-11-13T05:37:24.558Z,16.27
2022-11-13T05:40:12.094Z,14.43
2022-11-13T05:42:59.049Z,16.33
2022-11-13T05:45:45.975Z,20.27
2022-11-13T05:48:33.853Z,14.10
2022-11-13T05:51:32.491Z,14.97
2022-11-13T05:54:19.415Z,13.67
2022-11-13T05:57:06.397Z,19.37
2022-11-13T05:59:53.335Z,14.10
2022-11-13T06:02:40.282Z,16.07
2022-11-13T06:05:27.191Z,13.57
2022-11-13T06:08:14.126Z,14.83
2022-11-13T06:11:03.385Z,13.80
2022-11-13T06:13:51.060Z,15.87
2022-11-13T06:16:38.892Z,15.70
2022-11-13T06:19:25.937Z,42.23
2022-11-13T06:22:12.868Z,21.07
2022-11-13T06:24:59.781Z,17.90
2022-11-13T06:27:46.705Z,26.77
2022-11-13T06:30:33.638Z,49.60
2022-11-13T06:33:20.590Z,47.60
2022-11-13T06:36:12.980Z,12.07
2022-11-13T06:39:00.195Z,16.20
2022-11-13T06:41:47.215Z,23.50
2022-11-13T06:44:34.128Z,18.30
2022-11-13T06:47:21.074Z,13.50
2022-11-13T06:50:08.581Z,15.23
2022-11-13T06:52:55.514Z,15.30
2022-11-13T06:55:48.119Z,23.83
2022-11-13T06:58:35.135Z,18.57
2022-11-13T07:01:24.514Z,15.73
2022-11-13T07:04:12.773Z,12.87
2022-11-13T07:06:59.703Z,16.00
2022-11-13T07:09:46.616Z,17.87
2022-11-13T07:12:33.634Z,17.87
2022-11-13T07:15:20.539Z,18.10
2022-11-13T07:18:07.669Z,17.80
2022-11-13T07:20:54.571Z,23.97
2022-11-13T07:23:43.186Z,20.00
2022-11-13T07:26:30.304Z,24.80
2022-11-13T07:29:17.223Z,24.33
2022-11-13T07:32:04.580Z,26.00
2022-11-13T07:34:51.498Z,26.50
2022-11-13T07:37:38.990Z,27.43
2022-11-13T07:40:26.019Z,31.57
2022-11-13T07:43:13.735Z,36.63
2022-11-13T07:46:01.697Z,34.03
2022-11-13T07:48:48.715Z,36.47
2022-11-13T07:51:35.689Z,39.20
2022-11-13T07:54:22.660Z,39.63
2022-11-13T07:57:09.822Z,44.30
2022-11-13T07:59:56.763Z,43.73
2022-11-13T08:02:43.729Z,41.97
2022-11-13T08:05:30.914Z,47.53
2022-11-13T08:08:17.847Z,43.90
2022-11-13T08:11:07.246Z,47.83
2022-11-13T08:13:54.179Z,45.07
2022-11-13T08:16:41.228Z,52.67
2022-11-13T08:19:28.159Z,43.70
2022-11-13T08:22:15.301Z,42.77
2022-11-13T08:25:02.394Z,41.37
2022-11-13T08:27:49.453Z,43.67
2022-11-13T08:30:36.386Z,50.17
2022-11-13T08:33:23.362Z,46.73
2022-11-13T08:36:11.425Z,43.87
2022-11-13T08:38:58.386Z,43.37
2022-11-13T08:41:45.296Z,42.27
2022-11-13T08:44:32.243Z,44.40
2022-11-13T08:47:19.186Z,47.33
2022-11-13T08:50:06.744Z,44.20
2022-11-13T08:52:57.760Z,42.63
2022-11-13T08:55:44.692Z,47.07
2022-11-13T08:58:32.056Z,38.87
2022-11-13T09:01:22.719Z,39.87
2022-11-13T09:04:09.840Z,39.30
2022-11-13T09:06:57.242Z,35.87
2022-11-13T09:09:44.350Z,40.57
2022-11-13T09:12:31.310Z,40.83
2022-11-13T09:15:24.173Z,41.27
2022-11-13T09:18:11.763Z,41.37
2022-11-13T09:21:02.715Z,38.60
2022-11-13T09:23:50.324Z,43.43
2022-11-13T09:26:37.304Z,34.93
2022-11-13T09:29:26.161Z,41.63
2022-11-13T09:32:13.095Z,43.73
2022-11-13T09:35:00.008Z,40.57
2022-11-13T09:37:51.629Z,45.40
2022-11-13T09:40:41.583Z,39.77
2022-11-13T09:43:53.028Z,37.27
2022-11-13T09:46:55.979Z,36.93
2022-11-13T09:49:47.172Z,38.23
2022-11-13T09:52:41.318Z,31.80
2022-11-13T09:55:34.668Z,37.40
2022-11-13T09:58:37.429Z,38.07
2022-11-13T10:01:38.152Z,37.33
2022-11-13T10:04:44.562Z,41.17
2022-11-13T10:07:41.009Z,39.87
2022-11-13T10:10:56.242Z,36.43
2022-11-13T10:13:50.700Z,31.90
2022-11-13T10:16:56.413Z,35.27
2022-11-13T10:19:59.244Z,39.53
2022-11-13T10:22:51.623Z,42.40
2022-11-13T10:25:44.340Z,42.80
2022-11-13T10:31:46.593Z,41.90
2022-11-13T10:34:33.667Z,34.20
2022-11-13T10:37:39.879Z,37.07
2022-11-13T10:40:29.282Z,40.07
2022-11-13T10:43:18.721Z,36.10
2022-11-13T10:46:07.015Z,39.63
2022-11-13T10:48:53.969Z,35.93
2022-11-13T10:51:41.292Z,40.37
2022-11-13T10:54:31.161Z,32.53
2022-11-13T10:57:36.419Z,30.43
2022-11-13T11:00:25.475Z,32.50
2022-11-13T11:03:27.199Z,31.67
2022-11-13T11:06:14.119Z,35.67
2022-11-13T11:09:25.781Z,32.23
2022-11-13T11:12:19.390Z,36.23
2022-11-13T11:15:41.817Z,31.73
2022-11-13T11:19:01.699Z,30.10
2022-11-13T11:21:53.722Z,32.97
2022-11-13T11:25:06.196Z,30.60
2022-11-13T11:28:00.805Z,32.97
2022-11-13T11:30:53.745Z,34.40
2022-11-13T11:33:52.468Z,34.77
2022-11-13T11:37:08.211Z,34.73
2022-11-13T11:40:00.927Z,35.90
2022-11-13T11:42:49.825Z,30.27
2022-11-13T11:45:44.535Z,33.33
2022-11-13T11:48:33.001Z,33.70
2022-11-13T11:51:34.625Z,29.93
2022-11-13T11:54:21.534Z,28.63
2022-11-13T11:57:39.566Z,31.63
2022-11-13T12:00:31.972Z,28.07
2022-11-13T12:03:37.612Z,27.80
2022-11-13T12:06:46.103Z,25.43
2022-11-13T12:09:41.223Z,26.33
2022-11-13T12:12:51.580Z,27.53
2022-11-13T12:15:52.163Z,27.07
2022-11-13T12:18:48.192Z,27.27
2022-11-13T12:22:24.874Z,26.93
2022-11-13T12:25:32.794Z,26.30
2022-11-13T12:28:40.778Z,24.93
2022-11-13T12:31:46.306Z,27.33
2022-11-13T12:34:45.790Z,27.33
2022-11-13T12:37:53.387Z,28.97
2022-11-13T12:41:02.431Z,26.77
2022-11-13T12:44:12.241Z,24.13
2022-11-13T12:47:02.466Z,27.57
2022-11-13T12:50:00.173Z,26.80
2022-11-13T12:53:01.510Z,26.43
2022-11-13T12:56:00.101Z,26.87
2022-11-13T12:59:23.819Z,30.50
2022-11-13T13:02:06.888Z,26.60
2022-11-13T13:05:30.805Z,27.87
2022-11-13T13:08:20.917Z,27.40
2022-11-13T13:11:16.848Z,26.73
2022-11-13T13:14:31.958Z,26.53
2022-11-13T13:17:22.623Z,26.47
2022-11-13T13:20:15.743Z,27.50
2022-11-13T13:23:08.326Z,30.77
2022-11-13T13:26:22.711Z,29.17
2022-11-13T13:29:24.877Z,28.63
2022-11-13T13:32:33.694Z,29.83
2022-11-13T13:35:28.341Z,30.37
2022-11-13T13:38:29.309Z,29.93
2022-11-13T13:41:17.814Z,26.37
2022-11-13T13:44:13.981Z,30.37
2022-11-13T13:47:02.034Z,26.10
2022-11-13T13:49:53.071Z,25.53
2022-11-13T13:52:40.224Z,27.50
2022-11-13T13:55:28.644Z,26.17
2022-11-13T13:58:21.466Z,28.27
2022-11-13T14:01:19.918Z,27.30
2022-11-13T14:04:21.408Z,27.40
2022-11-13T14:07:27.641Z,25.47
2022-11-13T14:10:16.500Z,26.00
2022-11-13T14:13:04.132Z,27.37
2022-11-13T14:16:04.693Z,23.57
2022-11-13T14:19:02.105Z,22.77
2022-11-13T14:21:53.873Z,21.37
2022-11-13T14:24:58.594Z,23.90
2022-11-13T14:27:45.631Z,24.87
2022-11-13T14:30:32.646Z,19.13
2022-11-13T14:33:23.670Z,21.47
2022-11-13T14:36:11.346Z,18.83
2022-11-13T14:38:59.214Z,19.20
2022-11-13T14:41:51.474Z,18.67
2022-11-13T14:44:38.396Z,15.83
2022-11-13T14:47:37.317Z,15.57
2022-11-13T14:50:34.446Z,13.30
2022-11-13T14:53:42.154Z,15.30
2022-11-13T14:56:41.106Z,15.13
2022-11-13T14:59:29.269Z,13.17
2022-11-13T15:02:20.455Z,14.07
2022-11-13T15:05:10.057Z,14.03
2022-11-13T15:07:57.829Z,11.77
2022-11-13T15:10:44.991Z,13.73
2022-11-13T15:13:34.774Z,15.27
2022-11-13T15:16:28.883Z,14.63
2022-11-13T15:19:20.045Z,11.63
2022-11-13T15:22:28.687Z,12.27
2022-11-13T15:25:17.775Z,11.77
2022-11-13T15:28:04.920Z,13.77
2022-11-13T15:30:52.060Z,13.97
2022-11-13T15:33:41.507Z,12.77
2022-11-13T15:36:28.461Z,15.77
2022-11-13T15:39:22.912Z,11.93
2022-11-13T15:42:17.006Z,15.37
2022-11-13T15:45:06.177Z,14.27
2022-11-13T15:47:53.516Z,12.93
2022-11-13T15:50:40.550Z,12.30
2022-11-13T15:53:28.214Z,13.47
2022-11-13T15:56:15.980Z,12.33
2022-11-13T15:59:02.910Z,14.40
2022-11-13T16:01:51.761Z,12.47
2022-11-13T16:04:56.011Z,11.87
2022-11-13T16:07:44.081Z,10.07
2022-11-13T16:10:31.421Z,10.77
2022-11-13T16:13:18.781Z,10.53
2022-11-13T16:16:05.875Z,10.97
2022-11-13T16:18:58.768Z,10.70
2022-11-13T16:21:47.071Z,10.83
2022-11-13T16:24:34.033Z,10.63
2022-11-13T16:27:27.647Z,9.40
2022-11-13T16:30:20.378Z,7.40
2022-11-13T16:33:09.914Z,8.87
2022-11-13T16:35:57.452Z,7.90
2022-11-13T16:38:45.445Z,8.03
2022-11-13T16:41:33.255Z,7.13
2022-11-13T16:44:20.757Z,7.50
2022-11-13T16:47:15.099Z,7.17
2022-11-13T16:50:02.717Z,7.47
2022-11-13T16:52:50.092Z,8.73
2022-11-13T16:55:37.575Z,8.07
2022-11-13T16:58:24.921Z,7.77
2022-11-13T17:01:16.561Z,6.47
2022-11-13T17:04:04.102Z,7.27
2022-11-13T17:06:55.337Z,7.37
2022-11-13T17:09:45.035Z,8.77
2022-11-13T17:12:32.449Z,6.07
2022-11-13T17:15:20.706Z,6.70
2022-11-13T17:18:10.374Z,6.80
2022-11-13T17:20:57.750Z,6.63
2022-11-13T17:23:45.158Z,6.47
2022-11-13T17:26:32.739Z,8.63
2022-11-13T17:29:20.159Z,6.67
2022-11-13T17:32:07.113Z,8.27
2022-11-13T17:34:54.029Z,9.50
2022-11-13T17:37:41.004Z,8.03
2022-11-13T17:40:28.705Z,7.93
2022-11-13T17:43:18.432Z,8.87
2022-11-13T17:46:06.093Z,9.50
2022-11-13T17:48:54.056Z,8.17
2022-11-13T17:51:41.368Z,8.83
2022-11-13T17:54:29.256Z,7.93
2022-11-13T17:57:16.611Z,8.70
2022-11-13T18:00:04.328Z,7.40
2022-11-13T18:02:51.262Z,7.63
2022-11-13T18:05:40.761Z,6.80
2022-11-13T18:08:28.145Z,8.07
2022-11-13T18:11:22.058Z,8.17
2022-11-13T18:14:09.228Z,7.97
2022-11-13T18:16:56.181Z,8.83
2022-11-13T18:19:43.154Z,7.57
2022-11-13T18:22:30.123Z,8.30
2022-11-13T18:25:18.087Z,7.57
2022-11-13T18:28:05.123Z,7.43
2022-11-13T18:30:56.451Z,7.30
2022-11-13T18:33:44.326Z,8.50
2022-11-13T18:36:33.028Z,8.80
2022-11-13T18:39:20.507Z,9.47
2022-11-13T18:42:07.445Z,9.00
2022-11-13T18:44:54.551Z,9.97
2022-11-13T18:47:41.685Z,8.93
2022-11-13T18:50:28.693Z,9.70
2022-11-13T18:53:15.604Z,7.10
2022-11-13T18:56:10.115Z,8.27
2022-11-13T18:58:58.178Z,14.17
2022-11-13T19:01:46.164Z,9.03
2022-11-13T19:04:35.213Z,9.43
2022-11-13T19:07:22.708Z,10.03
2022-11-13T19:10:10.196Z,10.27
2022-11-13T19:12:57.578Z,9.40
2022-11-13T19:15:44.910Z,8.17
2022-11-13T19:18:32.837Z,8.93
2022-11-13T19:21:20.767Z,8.47
2022-11-13T19:24:08.673Z,10.03
2022-11-13T19:26:56.006Z,11.53
2022-11-13T19:29:43.390Z,9.27
2022-11-13T19:32:30.768Z,11.63
2022-11-13T19:35:18.130Z,9.40
2022-11-13T19:38:05.470Z,10.27
2022-11-13T19:40:53.225Z,10.70
2022-11-13T19:43:41.471Z,9.53
2022-11-13T19:46:29.610Z,9.60
2022-11-13T19:49:16.947Z,10.00
2022-11-13T19:52:04.370Z,9.53
2022-11-13T19:54:51.714Z,9.27
2022-11-13T19:57:44.952Z,11.77
2022-11-13T20:00:33.549Z,9.93
2022-11-13T20:03:20.994Z,10.80
2022-11-13T20:06:08.871Z,10.73
2022-11-13T20:08:56.298Z,10.60
2022-11-13T20:11:45.089Z,10.50
2022-11-13T20:14:37.924Z,10.67
2022-11-13T20:17:25.837Z,11.13
2022-11-13T20:20:13.226Z,10.63
2022-11-13T20:23:00.640Z,10.80
2022-11-13T20:25:58.709Z,13.00
2022-11-13T20:28:46.091Z,10.67
2022-11-13T20:31:33.470Z,12.57
2022-11-13T20:34:20.823Z,11.70
2022-11-13T20:37:08.162Z,11.47
2022-11-13T20:39:57.030Z,13.50
2022-11-13T20:42:44.373Z,12.07
2022-11-13T20:45:31.733Z,15.27
2022-11-13T20:48:19.159Z,12.53
2022-11-13T20:51:11.309Z,11.67
2022-11-13T20:53:58.758Z,13.53
2022-11-13T20:56:46.127Z,12.30
2022-11-13T20:59:33.511Z,15.00
2022-11-13T21:02:20.876Z,19.17
2022-11-13T21:05:08.751Z,24.60
2022-11-13T21:07:56.145Z,27.80
2022-11-13T21:10:43.496Z,30.00
2022-11-13T21:13:31.539Z,27.77
2022-11-13T21:16:19.771Z,28.77
2022-11-13T21:19:07.090Z,29.10
2022-11-13T21:21:54.447Z,29.23
2022-11-13T21:24:41.884Z,32.50
2022-11-13T21:27:29.331Z,34.57
2022-11-13T21:30:17.244Z,33.73
2022-11-13T21:33:04.611Z,33.80
2022-11-13T21:35:51.956Z,36.13
2022-11-13T21:38:39.439Z,32.50
2022-11-13T21:41:27.044Z,31.77
2022-11-13T21:44:14.415Z,31.73
2022-11-13T21:47:01.762Z,33.20
2022-11-13T21:49:49.115Z,31.27
2022-11-13T21:52:36.466Z,29.50
2022-11-13T21:55:23.825Z,29.13
2022-11-13T21:58:11.137Z,30.13
2022-11-13T22:00:58.691Z,30.17
2022-11-13T22:03:46.179Z,25.90
2022-11-13T22:06:36.110Z,25.73
2022-11-13T22:09:25.391Z,28.93
2022-11-13T22:12:12.838Z,24.87
2022-11-13T22:15:00.219Z,28.80
2022-11-13T22:17:47.557Z,28.00
2022-11-13T22:20:34.909Z,27.20
2022-11-13T22:23:22.337Z,27.63
2022-11-13T22:26:11.418Z,28.50
2022-11-13T22:29:00.029Z,31.53
2022-11-13T22:31:47.990Z,33.70
2022-11-13T22:34:35.415Z,31.70
2022-11-13T22:37:22.947Z,31.60
2022-11-13T22:40:10.724Z,35.37
2022-11-13T22:42:58.072Z,36.60
2022-11-13T22:45:45.868Z,34.03
2022-11-13T22:48:34.526Z,33.87
2022-11-13T22:51:23.394Z,36.07
2022-11-13T22:54:11.929Z,32.93
2022-11-13T22:57:03.894Z,33.57
2022-11-13T22:59:51.274Z,36.77
2022-11-13T23:02:43.037Z,34.03
2022-11-13T23:05:35.835Z,33.77
2022-11-13T23:08:23.270Z,37.27
2022-11-13T23:11:14.041Z,31.43
2022-11-13T23:14:02.756Z,33.10
2022-11-13T23:16:50.175Z,34.00
2022-11-13T23:19:37.508Z,34.03
2022-11-13T23:22:24.835Z,33.73
2022-11-13T23:25:12.185Z,33.63
2022-11-13T23:27:59.499Z,31.60
2022-11-13T23:30:46.900Z,33.70
2022-11-13T23:33:34.416Z,31.67
2022-11-13T23:36:21.877Z,35.90
2022-11-13T23:39:09.284Z,33.47
2022-11-13T23:41:56.701Z,33.23
2022-11-13T23:44:44.041Z,33.70
2022-11-13T23:47:31.433Z,33.97
2022-11-13T23:50:18.909Z,35.03
2022-11-13T23:53:06.250Z,33.83
2022-11-13T23:55:53.995Z,32.60
2022-11-13T23:58:41.359Z,34.20
